Main page
METAR-TAF:

METAR-TAF

Airports :

Ahvaz International Airport

Ahvaz, Iran

latitude: 31-20N, longitude: 048-40E, elevation: 20 m

Current weather observation

The report was made 21 minutes ago, at 06:00 UTC
Wind 2 kt from the Northeast
Temperature 28°C
Humidity 66%
Pressure 1016 hPa
Visibility: 7000 m

METAR: OIAW 230600Z 05002KT 7000 NSC 28/21 Q1016

Time: 09:51 (06:21 UTC)

Forecast

The report was made 51 minutes ago, at 05:30 UTC
Forecast valid from 23 at 06 UTC to 24 at 12 UTC
Wind 6 kt from the Southeast
Visibility: 7000 m
Temporary
from 23 at 22 UTC to 24 at 04 UTC
Wind 6 kt from the East/Northeast
Visibility: 3000 m
mist
Becoming
from 24 at 05 UTC to 24 at 07 UTC
Visibility: 7000 m

TAF: OIAW 230530Z 2306/2412 14003MPS 7000 NSC TEMPO 2322/2404 06003MPS 3000 BR BECMG 2405/2407 7000 NSC

Weather observations and forecasts of more than 4000 airports (METAR and TAF reports).

The available stations are represented by yellow and red dots on the map.

Hover mouse over dot to see the name of the station.

Then click to see weather observations and forecasts.

To change the map : click on the green buttons with a black cross to zoom in, on the green button with a dash to zoom out, or on the green arrows for adjacent maps.


METAR-TAF: